Time;durP1;ratioP1;P1;durP2;ratioP2;P2;SDS_P1;SDS_P2;PMS_P1;PMS_P2;Temp;Humidity;BMP_temperature;BMP_pressure;BME280_temperature;BME280_humidity;BME280_pressure;Samples;Min_cycle;Max_cycle;Signal;HPM_P1;HPM_P2
2023/01/06 00:03:59;;;;;;;20.93;9.30;;;;;;;8.51;100.00;98642.13;31865313;27;20063;-73
2023/01/06 00:19:01;;;;;;;14.13;7.40;;;;;;;8.59;100.00;98642.66;31870438;27;20430;-73
2023/01/06 00:34:04;;;;;;;18.27;8.27;;;;;;;8.47;100.00;98648.88;31880059;27;20051;-74
2023/01/06 00:49:06;;;;;;;17.80;8.60;;;;;;;8.42;100.00;98658.28;31866751;27;20071;-73
2023/01/06 01:04:13;;;;;;;14.87;8.20;;;;;;;8.64;100.00;98665.69;31862805;27;20051;-72
2023/01/06 01:19:15;;;;;;;;;;;;;;;8.79;100.00;98675.56;31865272;27;20403;-71
2023/01/06 01:34:18;;;;;;;19.93;7.73;;;;;;;8.63;100.00;98681.16;31859307;27;19924;-72
2023/01/06 01:49:25;;;;;;;12.23;7.23;;;;;;;8.51;100.00;98671.88;31854856;27;20468;-71
2023/01/06 02:04:32;;;;;;;18.13;7.90;;;;;;;8.50;100.00;98685.88;31873718;27;20084;-73
2023/01/06 02:19:45;;;;;;;;;;;;;;;8.60;100.00;98678.56;31873648;27;20595;-72
2023/01/06 02:34:55;;;;;;;11.33;6.30;;;;;;;8.72;100.00;98675.81;31864243;27;19932;-74
2023/01/06 02:49:57;;;;;;;14.70;7.03;;;;;;;8.69;100.00;98663.16;31848211;27;20047;-73
2023/01/06 03:05:03;;;;;;;12.53;5.53;;;;;;;8.65;100.00;98659.06;31859739;27;20218;-73
2023/01/06 03:20:05;;;;;;;;;;;;;;;8.89;100.00;98660.91;31852645;27;20097;-76
2023/01/06 03:35:27;;;;;;;10.57;5.67;;;;;;;8.87;100.00;98681.47;31863017;27;19933;-76
2023/01/06 03:50:36;;;;;;;8.60;4.73;;;;;;;8.79;100.00;98701.84;31877858;27;20053;-75
2023/01/06 04:05:38;;;;;;;12.27;4.37;;;;;;;8.50;100.00;98707.50;31871508;27;20047;-76
2023/01/06 04:20:40;;;;;;;13.43;6.00;;;;;;;8.44;100.00;98684.91;31863374;27;20051;-76
2023/01/06 04:35:42;;;;;;;10.90;5.73;;;;;;;8.59;100.00;98688.63;31865347;27;20055;-75
2023/01/06 04:50:45;;;;;;;10.13;4.70;;;;;;;8.44;100.00;98714.66;31856661;27;20514;-75
2023/01/06 05:05:46;;;;;;;16.53;4.80;;;;;;;8.42;100.00;98731.31;31865877;27;20047;-75
2023/01/06 05:20:52;;;;;;;13.03;5.77;;;;;;;8.48;100.00;98745.78;31854520;27;20089;-76
2023/01/06 05:36:05;;;;;;;12.10;5.63;;;;;;;8.62;100.00;98760.78;31862376;27;20047;-76
2023/01/06 05:51:10;;;;;;;13.20;5.13;;;;;;;8.94;100.00;98813.84;31854888;27;20384;-77
2023/01/06 06:06:13;;;;;;;9.47;4.33;;;;;;;8.89;100.00;98852.28;31845230;27;20043;-75
2023/01/06 06:21:17;;;;;;;9.10;4.87;;;;;;;9.01;100.00;98877.81;31860571;27;20055;-74
2023/01/06 06:36:20;;;;;;;12.40;5.20;;;;;;;9.02;100.00;98904.44;31852750;27;20058;-72
2023/01/06 06:51:22;;;;;;;14.77;6.63;;;;;;;9.51;100.00;98952.72;31838659;27;20108;-72
2023/01/06 07:06:26;;;;;;;11.70;6.13;;;;;;;9.70;100.00;98994.28;31843138;27;20081;-72
2023/01/06 07:21:29;;;;;;;11.00;5.50;;;;;;;9.03;100.00;99019.66;31912976;27;20051;-75
2023/01/06 07:36:31;;;;;;;7.70;4.17;;;;;;;9.24;100.00;99027.09;31853448;27;20527;-76
2023/01/06 07:51:33;;;;;;;8.13;4.07;;;;;;;9.36;100.00;99032.97;31850243;27;20055;-77
2023/01/06 08:06:39;;;;;;;28.67;14.37;;;;;;;9.52;100.00;99087.75;31831906;27;20081;-77
2023/01/06 08:21:40;;;;;;;9.40;4.87;;;;;;;9.51;100.00;99086.25;31865142;27;20108;-75
2023/01/06 08:36:43;;;;;;;11.20;4.10;;;;;;;9.84;100.00;99092.16;31827998;27;20119;-75
2023/01/06 08:51:45;;;;;;;7.93;3.60;;;;;;;10.12;100.00;99111.41;31851339;27;20434;-73
2023/01/06 09:06:47;;;;;;;5.73;3.20;;;;;;;9.80;100.00;99121.31;31832324;27;20128;-80
2023/01/06 09:21:49;;;;;;;6.10;3.03;;;;;;;9.62;100.00;99107.59;31829041;27;20055;-82
2023/01/06 09:36:51;;;;;;;4.73;3.00;;;;;;;9.62;100.00;99099.47;31836175;27;20043;-78
2023/01/06 09:51:58;;;;;;;4.73;3.00;;;;;;;10.13;100.00;99134.59;31818872;27;20089;-78
2023/01/06 13:33:34;;;;;;;5.90;3.90;;;;;;;5.08;100.00;99646.50;31714391;27;20892;-78
2023/01/06 13:48:42;;;;;;;7.70;4.03;;;;;;;4.40;100.00;99739.25;31703611;28;20486;-83
2023/01/06 14:03:46;;;;;;;8.23;3.90;;;;;;;4.07;100.00;99783.38;31722469;28;22119;-85
2023/01/06 14:18:52;;;;;;;8.63;5.00;;;;;;;3.96;100.00;99812.16;31759787;28;20467;-84
2023/01/06 14:34:02;;;;;;;6.57;4.37;;;;;;;3.79;100.00;99886.13;31789367;22;20052;-82
2023/01/06 14:49:12;;;;;;;7.93;4.60;;;;;;;3.41;100.00;99920.44;31583684;28;20047;-83
2023/01/06 15:04:25;;;;;;;6.07;4.50;;;;;;;3.00;100.00;99969.97;31623161;28;20059;-85
2023/01/06 15:19:29;;;;;;;11.53;6.03;;;;;;;2.59;100.00;99982.59;31593189;28;20519;-77
2023/01/06 15:34:33;;;;;;;9.43;5.70;;;;;;;2.29;100.00;100034.28;31613557;28;20056;-83
2023/01/06 15:49:52;;;;;;;11.47;5.27;;;;;;;2.39;100.00;100076.50;31601007;28;20048;-79
2023/01/06 16:04:54;;;;;;;7.47;4.20;;;;;;;2.16;100.00;100129.38;31620820;28;20052;-85
2023/01/06 16:19:59;;;;;;;10.63;5.40;;;;;;;2.10;100.00;100148.81;31588907;28;20051;-81
2023/01/06 16:35:09;;;;;;;8.73;4.70;;;;;;;1.92;100.00;100186.00;31568361;28;20048;-78
2023/01/06 16:50:21;;;;;;;5.27;3.60;;;;;;;1.79;100.00;100227.47;31572952;28;20048;-79
2023/01/06 17:05:36;;;;;;;7.73;4.43;;;;;;;1.63;100.00;100254.34;31569173;28;20052;-77
2023/01/06 17:20:44;;;;;;;5.57;3.57;;;;;;;1.60;100.00;100293.28;31567016;28;20060;-77
2023/01/06 17:35:50;;;;;;;8.30;4.40;;;;;;;1.62;100.00;100296.38;31556598;28;20430;-78
2023/01/06 17:50:55;;;;;;;;;;;;;;;1.48;100.00;100312.13;31560619;28;20135;-78
2023/01/06 18:06:12;;;;;;;7.47;3.67;;;;;;;1.03;100.00;100337.53;31565268;28;19920;-76
2023/01/06 18:21:14;;;;;;;7.50;4.10;;;;;;;1.01;100.00;100373.75;31577620;28;20067;-79
2023/01/06 18:36:16;;;;;;;8.07;3.63;;;;;;;0.60;100.00;100396.44;31602405;28;20070;-78
2023/01/06 18:51:22;;;;;;;4.37;2.20;;;;;;;0.32;100.00;100434.66;31661123;28;20052;-80
2023/01/06 19:06:43;;;;;;;2.87;2.00;;;;;;;0.02;100.00;100454.78;31639566;28;20056;-82
2023/01/06 19:21:44;;;;;;;4.43;2.90;;;;;;;-0.43;100.00;100500.34;31640244;28;20048;-84
2023/01/06 19:36:51;;;;;;;5.60;4.03;;;;;;;-0.84;100.00;100528.00;31656070;28;20043;-82
2023/01/06 19:51:54;;;;;;;6.23;4.00;;;;;;;-1.12;100.00;100563.22;31652031;28;20059;-83
2023/01/06 20:06:56;;;;;;;12.77;4.03;;;;;;;-1.04;100.00;100610.34;31664991;28;20048;-84
2023/01/06 20:21:57;;;;;;;13.17;5.30;;;;;;;-1.29;100.00;100614.00;31617408;28;20112;-83
2023/01/06 20:37:00;;;;;;;7.27;3.83;;;;;;;-1.46;100.00;100646.09;31577182;28;20449;-81
2023/01/06 20:52:07;;;;;;;7.90;4.97;;;;;;;-1.33;100.00;100674.34;31623040;28;20060;-83
2023/01/06 21:07:10;;;;;;;7.50;5.03;;;;;;;-1.57;100.00;100690.19;31640943;28;20415;-84
2023/01/06 21:22:11;;;;;;;8.47;4.20;;;;;;;-1.88;100.00;100722.41;31620044;28;20047;-83
2023/01/06 21:37:13;;;;;;;8.73;4.90;;;;;;;-2.26;100.00;100719.72;31628699;28;20047;-84
2023/01/06 21:52:16;;;;;;;6.50;5.10;;;;;;;-2.58;100.00;100740.41;31653450;28;20105;-82
2023/01/06 22:07:20;;;;;;;6.07;4.27;;;;;;;-2.66;100.00;100746.53;31641256;28;20135;-81
2023/01/06 22:22:23;;;;;;;7.40;4.60;;;;;;;-2.63;100.00;100750.44;31627866;28;20121;-82
2023/01/06 22:37:25;;;;;;;4.97;3.80;;;;;;;-2.96;100.00;100766.06;31641097;28;20052;-83
2023/01/06 22:52:27;;;;;;;12.83;5.97;;;;;;;-2.79;100.00;100797.97;31638755;28;20391;-83
2023/01/06 23:07:29;;;;;;;12.00;4.67;;;;;;;-2.72;100.00;100834.72;31630496;28;20040;-81
2023/01/06 23:22:31;;;;;;;12.30;5.83;;;;;;;-3.23;100.00;100847.56;31626000;28;20067;-81
2023/01/06 23:37:33;;;;;;;8.53;5.10;;;;;;;-3.11;100.00;100882.31;31621255;28;20048;-81
2023/01/06 23:52:35;;;;;;;6.50;5.00;;;;;;;-3.13;100.00;100900.41;31615870;28;20044;-82
